Time;durP1;ratioP1;P1;durP2;ratioP2;P2;SDS_P1;SDS_P2;PMS_P1;PMS_P2;Temp;Humidity;BMP_temperature;BMP_pressure;BME280_temperature;BME280_humidity;BME280_pressure;Samples;Min_cycle;Max_cycle;Signal;HPM_P1;HPM_P2
2023/06/10 00:00:42;;;;;;;8.13;5.22;;;16.10;99.90;;;;;;4997308;28;20046;-76
2023/06/10 00:03:09;;;;;;;7.55;5.07;;;16.00;99.90;;;;;;4997191;28;20110;-75
2023/06/10 00:05:35;;;;;;;10.98;6.07;;;16.00;99.90;;;;;;4996489;28;20058;-76
2023/06/10 00:08:07;;;;;;;7.72;5.25;;;16.00;99.90;;;;;;4997786;28;20136;-75
2023/06/10 00:10:35;;;;;;;9.15;5.80;;;16.00;99.90;;;;;;4997049;28;20032;-75
2023/06/10 00:13:00;;;;;;;8.88;5.90;;;16.00;99.90;;;;;;4997278;28;20497;-75
2023/06/10 00:15:26;;;;;;;6.80;5.88;;;16.00;99.90;;;;;;4996713;28;20033;-75
2023/06/10 00:17:54;;;;;;;6.30;5.70;;;15.90;99.90;;;;;;4997683;28;20040;-75
2023/06/10 00:20:23;;;;;;;8.93;6.72;;;15.90;99.90;;;;;;4997482;28;20068;-75
2023/06/10 00:22:49;;;;;;;9.35;6.57;;;15.90;99.90;;;;;;4997252;28;20387;-76
2023/06/10 00:25:15;;;;;;;10.00;6.25;;;15.80;99.90;;;;;;4998091;28;20044;-75
2023/06/10 00:27:40;;;;;;;8.57;6.43;;;15.80;99.90;;;;;;4997622;28;20038;-75
2023/06/10 00:30:10;;;;;;;9.25;6.15;;;15.80;99.90;;;;;;4996065;28;20039;-76
2023/06/10 00:32:36;;;;;;;8.13;6.95;;;15.80;99.90;;;;;;4996219;28;20030;-75
2023/06/10 00:35:06;;;;;;;9.73;6.80;;;15.70;99.90;;;;;;4996406;28;20440;-76
2023/06/10 00:37:32;;;;;;;8.00;7.20;;;15.70;99.90;;;;;;4996430;28;20053;-75
2023/06/10 00:39:58;;;;;;;8.63;6.55;;;15.60;99.90;;;;;;4996376;28;20031;-76
2023/06/10 00:42:24;;;;;;;9.55;7.18;;;15.60;99.90;;;;;;4996078;28;20044;-75
2023/06/10 00:44:50;;;;;;;8.57;6.88;;;15.60;99.90;;;;;;4996705;28;20084;-76
2023/06/10 00:47:16;;;;;;;9.27;7.15;;;15.50;99.90;;;;;;4995947;28;20038;-75
2023/06/10 00:49:43;;;;;;;8.27;6.30;;;15.50;99.90;;;;;;4996246;28;20045;-76
2023/06/10 00:52:10;;;;;;;9.35;6.75;;;15.50;99.90;;;;;;4996058;28;20037;-75
2023/06/10 00:54:37;;;;;;;8.88;6.68;;;15.50;99.90;;;;;;4996128;28;20033;-75
2023/06/10 00:57:04;;;;;;;10.60;6.72;;;15.50;99.90;;;;;;4994605;28;20030;-76
2023/06/10 00:59:30;;;;;;;9.35;7.20;;;15.50;99.90;;;;;;4996615;28;20033;-76
2023/06/10 01:01:56;;;;;;;7.85;6.95;;;15.40;99.90;;;;;;4997225;28;20125;-75
2023/06/10 01:04:23;;;;;;;7.80;7.00;;;15.40;99.90;;;;;;4996637;28;20121;-75
2023/06/10 01:07:12;;;;;;;10.10;6.82;;;15.30;99.90;;;;;;4995287;28;20037;-75
2023/06/10 01:10:16;;;;;;;7.35;6.57;;;15.30;99.90;;;;;;4995692;28;20044;-76
2023/06/10 01:12:48;;;;;;;8.00;6.82;;;15.30;99.90;;;;;;4996149;28;20042;-75
2023/06/10 01:15:15;;;;;;;8.77;6.90;;;15.20;99.90;;;;;;4995861;28;20037;-75
2023/06/10 01:17:57;;;;;;;7.35;6.53;;;15.20;99.90;;;;;;4996128;28;20638;-75
2023/06/10 01:20:26;;;;;;;9.00;6.75;;;15.20;99.90;;;;;;4995913;28;20038;-76
2023/06/10 01:22:54;;;;;;;9.23;6.68;;;15.20;99.90;;;;;;4996600;28;20745;-75
2023/06/10 01:25:20;;;;;;;9.10;6.80;;;15.30;99.90;;;;;;4994339;28;20038;-75
2023/06/10 01:27:51;;;;;;;9.10;7.25;;;15.20;99.90;;;;;;4996204;28;20520;-75
2023/06/10 01:30:22;;;;;;;8.68;7.57;;;15.10;99.90;;;;;;4996327;28;20034;-75
2023/06/10 01:32:51;;;;;;;7.93;7.13;;;15.10;99.90;;;;;;4995951;28;20072;-76
2023/06/10 01:35:18;;;;;;;8.70;7.80;;;15.10;99.90;;;;;;4995717;28;20112;-75
2023/06/10 01:37:46;;;;;;;9.82;7.93;;;15.10;99.90;;;;;;4996237;28;21377;-75
2023/06/10 01:40:13;;;;;;;8.93;7.13;;;15.00;99.90;;;;;;4996405;28;20029;-76
2023/06/10 01:42:39;;;;;;;8.88;7.38;;;15.00;99.90;;;;;;4996152;28;20508;-75
2023/06/10 01:45:05;;;;;;;8.23;7.20;;;15.00;99.90;;;;;;4995894;28;20033;-76
2023/06/10 01:47:31;;;;;;;8.73;6.50;;;15.00;99.90;;;;;;4995592;28;20038;-75
2023/06/10 01:49:57;;;;;;;10.13;6.82;;;15.00;99.90;;;;;;4995799;28;20388;-75
2023/06/10 01:52:22;;;;;;;10.15;7.65;;;15.00;99.90;;;;;;4995342;28;20192;-75
2023/06/10 01:54:48;;;;;;;8.73;7.30;;;14.90;99.90;;;;;;4994937;28;20041;-75
2023/06/10 01:57:13;;;;;;;8.77;7.55;;;14.90;99.90;;;;;;4995580;28;20030;-76
2023/06/10 01:59:39;;;;;;;8.75;7.15;;;14.90;99.90;;;;;;4995691;28;20061;-75
2023/06/10 02:02:05;;;;;;;8.60;7.07;;;14.90;99.90;;;;;;4995495;28;20069;-75
2023/06/10 02:04:31;;;;;;;10.15;8.30;;;14.80;99.90;;;;;;4996006;28;20030;-76
2023/06/10 02:06:56;;;;;;;10.48;8.88;;;14.80;99.90;;;;;;4995167;28;20041;-75
2023/06/10 02:09:22;;;;;;;11.88;8.95;;;14.70;99.90;;;;;;4999225;28;20026;-75
2023/06/10 02:11:48;;;;;;;11.55;8.55;;;14.70;99.90;;;;;;4998826;28;20029;-76
2023/06/10 02:14:14;;;;;;;11.73;9.25;;;14.60;99.90;;;;;;4999315;28;20034;-75
2023/06/10 02:16:40;;;;;;;9.70;8.55;;;14.60;99.90;;;;;;4997917;28;20034;-75
2023/06/10 02:19:06;;;;;;;9.63;8.63;;;14.60;99.90;;;;;;4999286;28;20034;-75
2023/06/10 02:21:34;;;;;;;12.35;8.90;;;14.50;99.90;;;;;;4998854;28;21428;-75
2023/06/10 02:24:00;;;;;;;9.57;8.57;;;14.50;99.90;;;;;;4999493;28;20085;-76
2023/06/10 02:26:28;;;;;;;9.95;8.63;;;14.40;99.90;;;;;;4998859;28;20120;-76
2023/06/10 02:28:53;;;;;;;9.70;8.50;;;14.40;99.90;;;;;;4999015;28;20063;-75
2023/06/10 02:31:19;;;;;;;9.35;8.45;;;14.40;99.90;;;;;;4998519;28;20507;-74
2023/06/10 02:33:46;;;;;;;8.75;7.80;;;14.40;99.90;;;;;;4998438;28;20056;-75
2023/06/10 02:36:13;;;;;;;9.32;8.32;;;14.30;99.90;;;;;;4997840;28;20410;-75
2023/06/10 02:38:40;;;;;;;9.32;8.20;;;14.30;99.90;;;;;;4998153;28;20030;-75
2023/06/10 02:41:08;;;;;;;10.60;8.32;;;14.30;99.90;;;;;;4997803;28;20084;-75
2023/06/10 02:43:33;;;;;;;9.23;7.82;;;14.20;99.90;;;;;;4997626;28;20030;-76
2023/06/10 02:45:59;;;;;;;9.38;8.40;;;14.20;99.90;;;;;;4998493;28;20065;-77
2023/06/10 02:48:24;;;;;;;9.02;8.02;;;14.20;99.90;;;;;;4998522;28;20030;-76
2023/06/10 02:50:50;;;;;;;9.07;8.18;;;14.20;99.90;;;;;;4998169;28;20042;-75
2023/06/10 02:53:16;;;;;;;12.98;8.25;;;14.10;99.90;;;;;;4998478;28;20041;-75
2023/06/10 02:55:41;;;;;;;8.63;7.72;;;14.10;99.90;;;;;;4997471;28;20030;-75
2023/06/10 02:58:07;;;;;;;10.35;8.10;;;14.00;99.90;;;;;;4996749;28;20060;-74
2023/06/10 03:00:33;;;;;;;12.98;8.63;;;14.00;99.90;;;;;;4998596;28;20073;-75
2023/06/10 03:03:02;;;;;;;9.73;8.65;;;14.00;99.90;;;;;;4998482;28;20145;-75
2023/06/10 03:05:28;;;;;;;10.20;8.57;;;13.90;99.90;;;;;;4997416;28;20041;-75
2023/06/10 03:07:54;;;;;;;9.13;7.97;;;13.90;99.90;;;;;;4998168;28;20528;-75
2023/06/10 03:10:20;;;;;;;10.52;8.70;;;13.90;99.90;;;;;;4998362;28;20034;-75
2023/06/10 03:12:45;;;;;;;10.77;8.85;;;13.80;99.90;;;;;;4997515;28;21049;-75
2023/06/10 03:15:11;;;;;;;12.60;8.00;;;13.80;99.90;;;;;;4997751;28;20096;-76
2023/06/10 03:17:36;;;;;;;11.32;8.50;;;13.80;99.90;;;;;;4997788;28;20465;-75
2023/06/10 03:20:05;;;;;;;14.60;10.70;;;13.80;99.90;;;;;;4997733;28;20129;-75
2023/06/10 03:22:30;;;;;;;12.90;9.68;;;13.70;99.90;;;;;;4997241;28;20055;-75
2023/06/10 03:24:57;;;;;;;10.70;9.60;;;13.70;99.90;;;;;;4996813;28;20609;-75
2023/06/10 03:27:22;;;;;;;11.25;9.23;;;13.70;99.90;;;;;;4996403;28;20038;-75
2023/06/10 03:29:48;;;;;;;10.40;9.23;;;13.60;99.90;;;;;;4997744;28;20052;-76
2023/06/10 03:32:14;;;;;;;14.65;9.80;;;13.60;99.90;;;;;;4998298;28;20456;-75
2023/06/10 03:34:40;;;;;;;11.70;9.77;;;13.60;99.90;;;;;;4996064;28;20027;-76
2023/06/10 03:37:06;;;;;;;11.65;10.45;;;13.60;99.90;;;;;;4995786;28;20041;-76
2023/06/10 03:39:32;;;;;;;12.55;10.88;;;13.60;99.90;;;;;;4996820;28;20030;-75
2023/06/10 03:41:58;;;;;;;12.68;9.98;;;13.60;99.90;;;;;;4997208;28;20037;-75
2023/06/10 03:44:25;;;;;;;13.00;10.27;;;13.60;99.90;;;;;;4997659;28;20659;-74
2023/06/10 03:46:51;;;;;;;13.15;10.35;;;13.60;99.90;;;;;;4996264;28;20038;-75
2023/06/10 03:49:17;;;;;;;11.80;10.55;;;13.50;99.90;;;;;;4997823;28;20088;-75
2023/06/10 03:51:43;;;;;;;11.35;9.82;;;13.60;99.90;;;;;;4997609;28;20075;-75
2023/06/10 03:54:08;;;;;;;11.75;10.55;;;13.60;99.90;;;;;;4998013;28;20095;-75
2023/06/10 03:56:35;;;;;;;12.10;10.02;;;13.60;99.90;;;;;;4997800;28;20026;-75
2023/06/10 03:59:00;;;;;;;11.02;9.00;;;13.70;99.90;;;;;;4998412;28;20033;-75
2023/06/10 04:01:26;;;;;;;10.85;8.85;;;13.70;99.90;;;;;;4996973;28;20100;-76
2023/06/10 04:03:53;;;;;;;11.07;9.93;;;13.70;99.90;;;;;;4996499;28;20029;-76
2023/06/10 04:06:19;;;;;;;13.68;10.15;;;13.70;99.90;;;;;;4996600;28;20477;-75
2023/06/10 04:08:45;;;;;;;11.07;9.88;;;13.80;99.90;;;;;;4997465;28;20032;-75
2023/06/10 04:11:10;;;;;;;11.52;10.32;;;13.80;99.90;;;;;;4995920;28;20037;-75
2023/06/10 04:13:36;;;;;;;12.35;10.52;;;13.80;99.90;;;;;;4996474;28;20025;-76
2023/06/10 04:16:02;;;;;;;14.10;11.30;;;13.80;99.90;;;;;;4997078;28;20034;-75
2023/06/10 04:18:28;;;;;;;16.83;11.50;;;13.90;99.90;;;;;;4996965;28;20031;-75
2023/06/10 04:20:54;;;;;;;13.50;10.52;;;13.90;99.90;;;;;;4997317;28;20049;-75
2023/06/10 04:23:19;;;;;;;11.55;10.35;;;14.00;99.90;;;;;;4997153;28;20108;-75
2023/06/10 04:25:45;;;;;;;14.13;10.43;;;14.00;99.90;;;;;;4996075;28;20487;-75
2023/06/10 04:28:10;;;;;;;11.07;9.85;;;14.10;99.90;;;;;;4996553;28;20033;-75
2023/06/10 04:30:38;;;;;;;12.65;10.50;;;14.20;99.90;;;;;;4996429;28;20034;-75
2023/06/10 04:33:06;;;;;;;13.30;10.40;;;14.20;99.90;;;;;;4996456;28;20497;-76
2023/06/10 04:35:32;;;;;;;12.13;10.25;;;14.30;99.90;;;;;;4996042;28;20030;-75
2023/06/10 04:37:57;;;;;;;14.50;11.07;;;14.30;99.90;;;;;;4996006;28;20483;-75
2023/06/10 04:40:23;;;;;;;14.07;10.93;;;14.40;99.90;;;;;;4996059;28;20026;-75
2023/06/10 04:42:48;;;;;;;12.48;10.98;;;14.40;99.90;;;;;;4996377;28;20026;-75
2023/06/10 04:45:14;;;;;;;13.23;10.70;;;14.50;99.90;;;;;;4995224;28;20736;-75
2023/06/10 04:47:40;;;;;;;13.02;10.25;;;14.50;99.90;;;;;;4995599;28;20402;-75
2023/06/10 04:50:06;;;;;;;15.32;10.43;;;14.60;99.90;;;;;;4995359;28;20022;-76
2023/06/10 04:52:33;;;;;;;12.23;10.93;;;14.70;99.90;;;;;;4995178;28;20030;-75
2023/06/10 04:54:59;;;;;;;12.52;10.68;;;14.80;99.90;;;;;;4996167;28;20038;-78
2023/06/10 04:57:24;;;;;;;11.70;10.05;;;14.80;99.90;;;;;;4995122;28;20036;-78
2023/06/10 04:59:50;;;;;;;14.60;10.48;;;14.90;99.90;;;;;;4996437;28;20031;-76
2023/06/10 05:02:15;;;;;;;13.13;10.93;;;15.00;99.90;;;;;;4992309;28;20042;-76
2023/06/10 05:04:41;;;;;;;12.43;10.60;;;15.10;99.90;;;;;;4996521;28;20034;-76
2023/06/10 05:07:07;;;;;;;13.70;10.77;;;15.20;99.90;;;;;;4993979;28;20042;-76
2023/06/10 05:09:32;;;;;;;11.25;10.02;;;15.30;99.90;;;;;;4994709;28;20036;-75
2023/06/10 05:11:58;;;;;;;16.17;9.93;;;15.40;99.90;;;;;;4995113;28;20061;-76
2023/06/10 05:14:24;;;;;;;12.43;10.43;;;15.50;99.90;;;;;;4995213;28;21490;-76
2023/06/10 05:16:49;;;;;;;13.70;10.63;;;15.50;99.90;;;;;;4995170;28;20513;-76
2023/06/10 05:19:18;;;;;;;11.55;9.65;;;15.60;99.90;;;;;;4994815;28;20026;-76
2023/06/10 05:21:44;;;;;;;11.90;10.60;;;15.70;99.90;;;;;;4995994;28;20044;-78
2023/06/10 05:24:10;;;;;;;12.65;10.68;;;15.80;99.90;;;;;;4997786;28;20041;-78
2023/06/10 05:26:38;;;;;;;11.73;9.85;;;15.90;99.90;;;;;;4995752;28;20041;-76
2023/06/10 05:29:05;;;;;;;11.60;10.40;;;16.00;99.90;;;;;;4994184;28;20699;-79
2023/06/10 05:31:30;;;;;;;13.05;10.95;;;16.10;99.90;;;;;;4995718;28;20046;-76
2023/06/10 05:33:57;;;;;;;10.90;9.73;;;16.20;99.90;;;;;;4994500;28;20141;-76
2023/06/10 05:36:25;;;;;;;13.35;9.98;;;16.30;99.90;;;;;;4995038;28;20069;-78
2023/06/10 05:38:50;;;;;;;13.18;10.60;;;16.40;99.90;;;;;;4995592;28;20205;-75
2023/06/10 05:41:16;;;;;;;11.85;10.20;;;16.50;99.90;;;;;;4995934;28;20053;-76
2023/06/10 05:43:42;;;;;;;12.30;9.95;;;16.70;99.90;;;;;;4999318;28;20030;-78
2023/06/10 05:46:07;;;;;;;15.90;10.20;;;16.80;99.90;;;;;;5000071;28;20060;-78
2023/06/10 05:48:33;;;;;;;12.98;10.38;;;17.00;99.90;;;;;;4999562;28;20049;-76
2023/06/10 05:50:58;;;;;;;11.02;9.73;;;17.10;99.90;;;;;;4999768;28;20027;-77
2023/06/10 05:53:24;;;;;;;11.38;9.52;;;17.20;99.90;;;;;;5000124;28;20037;-78
2023/06/10 05:55:49;;;;;;;13.30;10.68;;;17.30;99.90;;;;;;4999153;28;20023;-76
2023/06/10 05:58:15;;;;;;;13.57;10.70;;;17.50;99.90;;;;;;4999950;28;20033;-77
2023/06/10 06:00:41;;;;;;;12.68;10.23;;;17.60;99.90;;;;;;4999230;28;20038;-78
2023/06/10 06:03:10;;;;;;;12.10;9.50;;;17.70;99.90;;;;;;4999092;28;20172;-77
2023/06/10 06:05:37;;;;;;;12.60;9.60;;;17.80;99.90;;;;;;4998702;28;20037;-74
2023/06/10 06:08:04;;;;;;;11.40;9.65;;;17.90;99.90;;;;;;4998790;28;21474;-74
2023/06/10 06:10:30;;;;;;;11.10;9.93;;;18.00;99.90;;;;;;4998933;28;20899;-73
2023/06/10 06:12:55;;;;;;;11.52;10.20;;;18.10;99.90;;;;;;4998971;28;20113;-73
2023/06/10 06:15:21;;;;;;;12.68;9.50;;;18.20;99.90;;;;;;4998835;28;20264;-73
2023/06/10 06:17:47;;;;;;;11.20;9.00;;;18.40;99.90;;;;;;4998821;28;20557;-75
2023/06/10 06:20:12;;;;;;;13.07;9.85;;;18.50;99.90;;;;;;4994483;28;20029;-76
2023/06/10 06:22:38;;;;;;;13.13;9.95;;;18.50;99.90;;;;;;4995098;28;20056;-76
2023/06/10 06:25:05;;;;;;;11.43;9.57;;;18.60;99.90;;;;;;4998225;28;20145;-76
2023/06/10 06:27:31;;;;;;;11.02;9.35;;;18.60;99.90;;;;;;4998216;28;20688;-76
2023/06/10 06:29:57;;;;;;;11.45;9.32;;;18.70;99.90;;;;;;4997100;28;20152;-76
2023/06/10 06:32:24;;;;;;;12.63;10.18;;;18.80;99.90;;;;;;4998422;28;20490;-75
2023/06/10 06:34:54;;;;;;;11.20;9.05;;;19.00;99.90;;;;;;4998586;28;20112;-75
2023/06/10 06:37:23;;;;;;;8.68;7.78;;;19.10;99.90;;;;;;4998208;28;20048;-76
2023/06/10 06:39:53;;;;;;;11.20;8.10;;;19.20;99.90;;;;;;4998081;28;20053;-76
2023/06/10 06:42:19;;;;;;;9.88;8.75;;;19.30;99.90;;;;;;4998005;28;20057;-76
2023/06/10 06:44:46;;;;;;;11.98;8.90;;;19.40;99.90;;;;;;4998364;28;20033;-76
2023/06/10 06:47:11;;;;;;;9.48;8.23;;;19.40;99.90;;;;;;4996405;28;20038;-76
2023/06/10 06:49:37;;;;;;;11.88;7.65;;;19.50;99.90;;;;;;4997091;28;20507;-76
2023/06/10 06:52:03;;;;;;;12.05;8.75;;;19.70;99.90;;;;;;4997301;28;20037;-75
2023/06/10 06:54:29;;;;;;;9.57;8.07;;;19.80;99.90;;;;;;4996496;28;20121;-76
2023/06/10 06:56:55;;;;;;;11.32;8.68;;;19.80;99.90;;;;;;4997846;28;20156;-76
2023/06/10 06:59:20;;;;;;;10.15;8.77;;;20.00;99.90;;;;;;4998387;28;20034;-75
2023/06/10 07:01:47;;;;;;;10.82;9.05;;;20.00;99.90;;;;;;4997964;28;20072;-76
2023/06/10 07:04:15;;;;;;;9.95;8.65;;;20.00;99.90;;;;;;4997492;28;20057;-76
2023/06/10 07:06:41;;;;;;;12.32;8.75;;;20.20;99.90;;;;;;4998162;28;20029;-75
2023/06/10 07:09:08;;;;;;;8.73;7.82;;;20.20;99.90;;;;;;4998373;28;20103;-74
2023/06/10 07:11:34;;;;;;;11.43;9.52;;;20.20;99.90;;;;;;4996952;28;21001;-73
2023/06/10 07:13:59;;;;;;;10.45;9.35;;;20.20;99.90;;;;;;4996640;28;20037;-73
2023/06/10 07:16:25;;;;;;;9.88;7.95;;;20.30;99.90;;;;;;4995954;28;20481;-74
2023/06/10 07:18:52;;;;;;;11.43;8.48;;;20.30;99.90;;;;;;4998300;28;20148;-74
2023/06/10 07:21:17;;;;;;;10.55;9.35;;;20.40;99.90;;;;;;4997216;28;20117;-73
2023/06/10 07:23:44;;;;;;;12.35;9.20;;;20.50;99.90;;;;;;4995854;28;21389;-74
2023/06/10 07:26:10;;;;;;;11.60;8.65;;;20.50;99.90;;;;;;4996920;28;20041;-73
2023/06/10 07:28:37;;;;;;;10.48;8.75;;;20.60;99.90;;;;;;4997249;28;20046;-73
2023/06/10 07:31:03;;;;;;;7.80;6.93;;;20.70;99.90;;;;;;4997666;28;20088;-76
2023/06/10 07:33:28;;;;;;;9.07;6.90;;;20.70;99.90;;;;;;4996468;28;20067;-73
2023/06/10 07:35:54;;;;;;;9.40;6.03;;;20.70;99.90;;;;;;4995710;28;20106;-73
2023/06/10 07:38:20;;;;;;;6.88;6.00;;;20.70;99.90;;;;;;4997372;28;20462;-73
2023/06/10 07:40:46;;;;;;;8.88;6.10;;;20.70;99.90;;;;;;4997856;28;20050;-80
2023/06/10 07:43:11;;;;;;;7.55;5.30;;;20.80;99.90;;;;;;4998225;28;20140;-78
2023/06/10 07:45:39;;;;;;;5.85;4.90;;;20.80;99.90;;;;;;4999648;28;20030;-72
2023/06/10 07:48:04;;;;;;;6.40;5.10;;;20.80;99.90;;;;;;4997595;28;20052;-72
2023/06/10 07:50:30;;;;;;;7.88;5.88;;;20.80;99.90;;;;;;5000940;28;20034;-78
2023/06/10 07:52:55;;;;;;;6.97;5.03;;;20.80;99.90;;;;;;4999551;28;20762;-78
2023/06/10 07:55:21;;;;;;;8.18;5.30;;;20.90;99.90;;;;;;4999936;28;20037;-79
2023/06/10 07:57:46;;;;;;;5.55;4.70;;;20.90;99.90;;;;;;5002201;28;20038;-79
2023/06/10 08:00:12;;;;;;;5.75;5.15;;;20.90;99.90;;;;;;4999973;28;20030;-78
2023/06/10 08:02:38;;;;;;;6.05;4.70;;;21.00;99.90;;;;;;4999277;28;20046;-79
2023/06/10 08:05:04;;;;;;;6.95;4.82;;;21.00;99.90;;;;;;5000849;28;20103;-78
2023/06/10 08:07:30;;;;;;;5.53;4.93;;;21.10;99.90;;;;;;5002711;28;20050;-78
2023/06/10 08:09:56;;;;;;;5.55;4.53;;;21.10;99.90;;;;;;5005374;28;20773;-79
2023/06/10 08:12:21;;;;;;;4.53;4.00;;;21.10;99.90;;;;;;5007302;28;20033;-79
2023/06/10 08:14:47;;;;;;;6.35;5.07;;;21.10;99.90;;;;;;5007943;28;20030;-79
2023/06/10 08:17:12;;;;;;;6.15;4.07;;;21.20;99.90;;;;;;5005888;28;20065;-79
2023/06/10 08:19:38;;;;;;;4.63;4.10;;;21.20;99.90;;;;;;5005684;28;20060;-79
2023/06/10 08:22:04;;;;;;;7.15;5.05;;;21.20;99.90;;;;;;5006614;28;20041;-80
2023/06/10 08:24:29;;;;;;;5.40;4.88;;;21.20;99.90;;;;;;5007977;28;20118;-79
2023/06/10 08:26:56;;;;;;;5.68;4.10;;;21.30;99.90;;;;;;5006519;28;20037;-79
2023/06/10 08:29:23;;;;;;;5.30;3.80;;;21.40;99.90;;;;;;5005805;28;20096;-80
2023/06/10 08:31:48;;;;;;;5.82;3.88;;;21.40;99.90;;;;;;5007410;28;20056;-79
2023/06/10 08:34:14;;;;;;;6.82;3.92;;;21.50;99.90;;;;;;5007181;28;20034;-79
2023/06/10 08:36:40;;;;;;;4.25;3.83;;;21.60;99.90;;;;;;5006357;28;20050;-79
2023/06/10 08:39:06;;;;;;;5.82;4.00;;;21.60;99.90;;;;;;5007280;28;20283;-79
2023/06/10 08:41:36;;;;;;;7.22;4.97;;;21.70;99.90;;;;;;5007358;28;20153;-79
2023/06/10 08:44:18;;;;;;;7.40;5.13;;;21.80;99.90;;;;;;5006678;28;20030;-79
2023/06/10 08:46:45;;;;;;;5.90;4.20;;;21.90;99.90;;;;;;5005105;28;20030;-78
2023/06/10 08:49:17;;;;;;;6.30;4.50;;;22.00;99.90;;;;;;5006482;28;20086;-80
2023/06/10 08:51:43;;;;;;;6.28;4.10;;;22.10;99.90;;;;;;5005101;28;20038;-78
2023/06/10 08:54:19;;;;;;;6.47;4.20;;;22.20;99.90;;;;;;5005577;28;20030;-79
2023/06/10 08:56:48;;;;;;;6.20;4.53;;;22.40;99.90;;;;;;5005096;28;20050;-78
2023/06/10 08:59:13;;;;;;;5.25;4.55;;;22.50;99.90;;;;;;5007011;28;20524;-79
2023/06/10 09:01:39;;;;;;;6.07;4.78;;;22.50;99.90;;;;;;5005910;28;20034;-77
2023/06/10 09:04:05;;;;;;;5.70;4.93;;;22.70;99.90;;;;;;5004298;28;20057;-79
2023/06/10 09:06:33;;;;;;;4.88;4.32;;;22.70;99.90;;;;;;5006268;28;20045;-79
2023/06/10 09:08:59;;;;;;;9.38;4.45;;;22.60;99.90;;;;;;5004231;28;20104;-78
2023/06/10 09:11:25;;;;;;;6.55;4.50;;;22.50;99.90;;;;;;5006502;28;20029;-79
2023/06/10 09:13:51;;;;;;;5.32;4.68;;;22.50;99.90;;;;;;5004934;28;20537;-77
2023/06/10 09:16:17;;;;;;;4.80;4.18;;;22.50;99.90;;;;;;4998462;28;20031;-78
2023/06/10 09:18:42;;;;;;;5.63;4.50;;;22.70;99.90;;;;;;4998575;28;21414;-79
2023/06/10 09:21:08;;;;;;;5.63;4.25;;;22.80;99.90;;;;;;4998911;28;20073;-79
2023/06/10 09:23:35;;;;;;;6.95;4.60;;;22.90;99.90;;;;;;4998549;28;20041;-79
2023/06/10 09:26:08;;;;;;;5.15;4.45;;;22.90;99.90;;;;;;4999245;28;20040;-79
2023/06/10 09:28:34;;;;;;;7.10;4.20;;;23.10;99.90;;;;;;4999011;28;20464;-79
2023/06/10 09:31:05;;;;;;;4.95;4.32;;;23.40;99.90;;;;;;4999443;28;20049;-79
2023/06/10 09:33:31;;;;;;;5.18;4.68;;;23.60;99.90;;;;;;4998257;28;20040;-78
2023/06/10 09:36:00;;;;;;;6.05;4.65;;;23.80;99.90;;;;;;5000361;28;20022;-79
2023/06/10 09:38:30;;;;;;;5.90;5.07;;;24.00;99.90;;;;;;5001409;28;20030;-79
2023/06/10 09:40:56;;;;;;;6.10;4.47;;;24.20;99.90;;;;;;5000377;28;20038;-78
2023/06/10 09:43:22;;;;;;;5.28;3.83;;;24.50;99.90;;;;;;5003358;28;20042;-79
2023/06/10 09:45:48;;;;;;;8.00;4.75;;;24.80;99.90;;;;;;5001113;28;20498;-79
2023/06/10 09:48:14;;;;;;;6.18;4.20;;;25.10;99.90;;;;;;5001051;28;20026;-79
2023/06/10 09:50:44;;;;;;;5.35;4.85;;;25.30;99.90;;;;;;5002997;28;20090;-78
2023/06/10 09:53:10;;;;;;;6.40;4.50;;;25.50;99.90;;;;;;5001376;28;20564;-79
2023/06/10 09:55:38;;;;;;;5.75;4.53;;;25.60;99.90;;;;;;5001958;28;20038;-79
2023/06/10 09:58:04;;;;;;;5.60;4.35;;;25.70;99.90;;;;;;5002316;28;20033;-79
2023/06/10 10:00:32;;;;;;;4.80;4.30;;;25.70;99.90;;;;;;5000227;28;20045;-79
2023/06/10 10:02:59;;;;;;;7.05;5.13;;;25.90;99.90;;;;;;5000561;28;20100;-78
2023/06/10 10:05:25;;;;;;;7.38;4.63;;;25.80;99.90;;;;;;4999377;28;21069;-80
2023/06/10 10:07:52;;;;;;;6.15;5.03;;;25.40;99.90;;;;;;5002370;28;20073;-79
2023/06/10 10:10:20;;;;;;;5.40;4.70;;;25.10;99.90;;;;;;5002245;28;20038;-79
2023/06/10 10:12:55;;;;;;;6.25;5.07;;;25.00;99.90;;;;;;4998672;28;20063;-78
2023/06/10 10:15:23;;;;;;;6.88;4.25;;;25.10;99.90;;;;;;5001513;28;20131;-80
2023/06/10 10:18:02;;;;;;;5.70;4.55;;;25.20;99.90;;;;;;5004806;28;20030;-80
2023/06/10 10:20:31;;;;;;;5.15;4.10;;;25.30;99.90;;;;;;5002707;28;20038;-73
2023/06/10 10:22:57;;;;;;;4.28;3.83;;;25.50;99.90;;;;;;4995820;28;20113;-75
2023/06/10 10:25:29;;;;;;;4.90;4.30;;;25.70;99.90;;;;;;4994394;28;20037;-74
2023/06/10 10:28:17;;;;;;;4.95;4.43;;;26.00;99.90;;;;;;4996167;28;20041;-74
2023/06/10 10:30:47;;;;;;;5.80;4.05;;;26.30;99.90;;;;;;4998166;28;20045;-75
2023/06/10 10:33:18;;;;;;;3.92;3.50;;;26.50;99.90;;;;;;4998563;28;20029;-75
2023/06/10 10:35:45;;;;;;;4.22;3.80;;;26.70;99.90;;;;;;4997904;28;20157;-74
2023/06/10 10:38:11;;;;;;;4.65;3.90;;;26.80;99.90;;;;;;4999249;28;20033;-74
2023/06/10 10:40:38;;;;;;;6.55;4.60;;;26.90;99.90;;;;;;4998386;28;20034;-74
2023/06/10 10:43:05;;;;;;;5.60;4.25;;;27.00;99.90;;;;;;4998964;28;20038;-75
2023/06/10 10:45:33;;;;;;;4.70;4.25;;;26.80;99.90;;;;;;4997925;28;20041;-74
2023/06/10 10:48:11;;;;;;;6.38;3.67;;;26.40;99.90;;;;;;4998284;28;20117;-75
2023/06/10 10:50:37;;;;;;;7.20;4.20;;;25.90;99.90;;;;;;4998765;28;20037;-74
2023/06/10 10:53:04;;;;;;;4.85;3.92;;;25.60;99.90;;;;;;4997267;28;20048;-75
2023/06/10 10:55:31;;;;;;;4.90;3.58;;;25.50;99.90;;;;;;4998142;28;20038;-74
2023/06/10 10:58:05;;;;;;;5.47;3.35;;;25.60;99.90;;;;;;4999131;28;20113;-75
2023/06/10 11:00:42;;;;;;;;;;;26.10;99.90;;;;;;4998852;28;20040;-75
2023/06/10 11:03:14;;;;;;;4.05;3.65;;;26.60;99.90;;;;;;5000254;28;19921;-75
2023/06/10 11:05:44;;;;;;;5.38;3.90;;;26.80;99.90;;;;;;4997266;28;20411;-75
2023/06/10 11:08:10;;;;;;;5.05;3.90;;;26.60;99.90;;;;;;4998902;28;20056;-75
2023/06/10 11:10:38;;;;;;;5.03;4.30;;;26.50;99.90;;;;;;4998197;28;20449;-74
2023/06/10 11:13:13;;;;;;;6.28;3.80;;;26.60;99.90;;;;;;4998060;28;20125;-74
2023/06/10 11:15:44;;;;;;;6.43;4.38;;;26.70;99.90;;;;;;4996915;28;20068;-75
2023/06/10 11:18:27;;;;;;;4.93;4.43;;;27.00;99.90;;;;;;4996758;28;20520;-76
2023/06/10 11:20:59;;;;;;;4.32;3.78;;;27.30;99.90;;;;;;4995956;28;20646;-76
2023/06/10 11:23:25;;;;;;;5.30;3.67;;;26.90;99.90;;;;;;4998321;28;20092;-75
2023/06/10 11:25:51;;;;;;;4.53;4.13;;;26.90;99.90;;;;;;4996661;28;20030;-75
2023/06/10 11:28:20;;;;;;;6.43;3.88;;;27.10;99.90;;;;;;4997825;28;20509;-75
2023/06/10 11:30:46;;;;;;;5.15;4.10;;;27.30;99.90;;;;;;4997342;28;20038;-75
2023/06/10 11:33:20;;;;;;;5.05;3.80;;;27.40;99.90;;;;;;4997165;28;20069;-75
2023/06/10 11:35:45;;;;;;;5.20;3.90;;;27.80;99.90;;;;;;4997201;28;20040;-76
2023/06/10 11:38:13;;;;;;;6.40;4.22;;;27.50;99.90;;;;;;4997374;28;20035;-75
2023/06/10 11:40:38;;;;;;;4.22;3.60;;;27.40;99.90;;;;;;4994971;28;20026;-76
2023/06/10 11:43:05;;;;;;;4.32;3.75;;;27.10;99.90;;;;;;4996755;28;20040;-75
2023/06/10 11:45:30;;;;;;;4.75;3.60;;;26.80;99.90;;;;;;4997127;28;20557;-76
2023/06/10 11:48:00;;;;;;;4.47;3.70;;;26.60;99.90;;;;;;4997770;28;20042;-76
2023/06/10 11:50:33;;;;;;;3.60;3.30;;;26.50;99.90;;;;;;4995991;28;20533;-76
2023/06/10 11:52:59;;;;;;;4.38;3.22;;;26.90;99.90;;;;;;4997946;28;20033;-75
2023/06/10 11:55:46;;;;;;;5.30;3.20;;;27.20;99.90;;;;;;4996477;28;20030;-74
2023/06/10 11:58:16;;;;;;;3.30;3.00;;;27.50;99.90;;;;;;4997325;28;20108;-74
2023/06/10 12:00:49;;;;;;;3.95;3.15;;;27.80;99.90;;;;;;4996485;28;20529;-73
2023/06/10 12:03:15;;;;;;;6.57;3.10;;;28.00;99.90;;;;;;4997083;28;20038;-74
2023/06/10 12:06:00;;;;;;;3.72;3.10;;;28.50;99.90;;;;;;4993401;28;20137;-73
2023/06/10 12:08:30;;;;;;;4.65;3.22;;;28.50;99.90;;;;;;4995902;28;20688;-74
2023/06/10 12:10:56;;;;;;;3.72;3.40;;;28.60;99.90;;;;;;4995606;28;20064;-74
2023/06/10 12:13:26;;;;;;;3.35;2.95;;;28.30;99.90;;;;;;4995315;28;20038;-73
2023/06/10 12:15:52;;;;;;;3.70;3.40;;;28.10;99.90;;;;;;4993630;28;20030;-74
2023/06/10 12:18:19;;;;;;;5.47;3.35;;;28.10;99.90;;;;;;4994248;28;20037;-75
2023/06/10 12:20:45;;;;;;;3.78;3.38;;;28.10;99.90;;;;;;4994757;28;20140;-73
2023/06/10 12:23:12;;;;;;;5.25;3.30;;;28.10;99.90;;;;;;4995410;28;20036;-73
2023/06/10 12:25:38;;;;;;;4.07;3.00;;;28.00;99.90;;;;;;4995625;28;21861;-79
2023/06/10 12:28:05;;;;;;;3.28;2.97;;;28.00;99.90;;;;;;4995459;28;20042;-79
2023/06/10 12:30:31;;;;;;;7.55;4.03;;;27.90;99.90;;;;;;4994620;28;20556;-78
2023/06/10 12:32:57;;;;;;;5.15;3.00;;;28.10;99.90;;;;;;4995025;28;20030;-79
2023/06/10 12:35:25;;;;;;;6.70;4.20;;;28.40;99.90;;;;;;4992895;28;20627;-78
2023/06/10 12:38:00;;;;;;;7.82;3.80;;;28.90;99.90;;;;;;4996135;28;20040;-81
2023/06/10 12:40:31;;;;;;;5.20;3.70;;;29.40;99.90;;;;;;4995786;28;20095;-81